Time;durP1;ratioP1;P1;durP2;ratioP2;P2;SDS_P1;SDS_P2;PMS_P1;PMS_P2;Temp;Humidity;BMP_temperature;BMP_pressure;BME280_temperature;BME280_humidity;BME280_pressure;Samples;Min_cycle;Max_cycle;Signal;HPM_P1;HPM_P2
2022/06/01 00:00:24;;;;;;;4.27;3.90;;;;;;;;;;4915854;29;20479;-76
2022/06/01 00:02:51;;;;;;;4.20;3.77;;;;;;;;;;4915997;29;20497;-76
2022/06/01 00:05:19;;;;;;;4.00;3.60;;;;;;;;;;4912964;29;20568;-76
2022/06/01 00:07:46;;;;;;;5.17;3.53;;;;;;;;;;4930506;29;20456;-76
2022/06/01 00:10:13;;;;;;;4.30;3.90;;;;;;;;;;4930497;29;20437;-76
2022/06/01 00:12:39;;;;;;;4.43;4.03;;;;;;;;;;4930464;29;20560;-76
2022/06/01 00:15:08;;;;;;;4.83;4.00;;;;;;;;;;4914472;29;20975;-76
2022/06/01 00:17:35;;;;;;;3.87;3.57;;;;;;;;;;4933731;29;20453;-76
2022/06/01 00:20:02;;;;;;;4.20;3.77;;;;;;;;;;4931338;29;21046;-76
2022/06/01 00:22:28;;;;;;;4.97;4.00;;;;;;;;;;4914374;29;20928;-76
2022/06/01 00:24:55;;;;;;;4.40;4.00;;;;;;;;;;4914840;29;20537;-76
2022/06/01 00:27:22;;;;;;;4.23;3.83;;;;;;;;;;4915679;29;20500;-76
2022/06/01 00:29:48;;;;;;;4.50;3.50;;;;;;;;;;4930182;29;20936;-76
2022/06/01 00:32:17;;;;;;;4.20;3.80;;;;;;;;;;4928624;29;20908;-76
2022/06/01 00:34:44;;;;;;;5.50;4.00;;;;;;;;;;4927219;29;20459;-75
2022/06/01 00:37:11;;;;;;;7.30;4.50;;;;;;;;;;4915254;29;20575;-76
2022/06/01 00:39:37;;;;;;;4.40;4.00;;;;;;;;;;4929777;29;20528;-76
2022/06/01 00:42:12;;;;;;;4.60;4.20;;;;;;;;;;4915462;29;20822;-76
2022/06/01 00:44:38;;;;;;;3.90;3.60;;;;;;;;;;4915322;29;20456;-76
2022/06/01 00:47:05;;;;;;;5.00;4.50;;;;;;;;;;4915379;29;20459;-76
2022/06/01 00:49:34;;;;;;;4.30;3.90;;;;;;;;;;4915171;29;20440;-75
2022/06/01 00:52:01;;;;;;;4.40;4.10;;;;;;;;;;4914002;29;20824;-76
2022/06/01 00:54:27;;;;;;;4.00;3.70;;;;;;;;;;4913807;29;20453;-76
2022/06/01 00:56:56;;;;;;;4.43;4.03;;;;;;;;;;4914347;29;20441;-75
2022/06/01 00:59:23;;;;;;;4.90;4.40;;;;;;;;;;4914433;29;20566;-75
2022/06/01 01:01:53;;;;;;;4.63;4.17;;;;;;;;;;4897464;29;20464;-75
2022/06/01 01:04:20;;;;;;;4.47;4.07;;;;;;;;;;4915131;29;20517;-76
2022/06/01 01:06:48;;;;;;;5.13;4.63;;;;;;;;;;4913903;29;20552;-76
2022/06/01 01:09:15;;;;;;;4.93;4.43;;;;;;;;;;4914890;29;20448;-76
2022/06/01 01:11:46;;;;;;;4.50;4.10;;;;;;;;;;4913358;29;20465;-76
2022/06/01 01:14:14;;;;;;;4.50;4.10;;;;;;;;;;4914563;29;20778;-75
2022/06/01 01:16:41;;;;;;;6.17;5.10;;;;;;;;;;4914697;29;20799;-76
2022/06/01 01:19:13;;;;;;;4.73;4.33;;;;;;;;;;4914448;29;20437;-76
2022/06/01 01:21:46;;;;;;;4.87;4.47;;;;;;;;;;4913679;29;20452;-76
2022/06/01 01:24:16;;;;;;;4.83;4.33;;;;;;;;;;4900319;29;20960;-75
2022/06/01 01:26:48;;;;;;;3.87;3.57;;;;;;;;;;4913254;29;20701;-75
2022/06/01 01:29:15;;;;;;;4.43;4.03;;;;;;;;;;4913726;29;20532;-76
2022/06/01 01:31:43;;;;;;;4.57;4.20;;;;;;;;;;4913230;29;20871;-76
2022/06/01 01:34:10;;;;;;;4.30;3.90;;;;;;;;;;4899500;29;20445;-76
2022/06/01 01:36:38;;;;;;;4.13;3.80;;;;;;;;;;4897531;29;20461;-75
2022/06/01 01:39:07;;;;;;;4.63;4.23;;;;;;;;;;4901602;29;20527;-75
2022/06/01 01:41:36;;;;;;;4.43;4.03;;;;;;;;;;4896069;29;20461;-76
2022/06/01 01:44:07;;;;;;;4.37;3.97;;;;;;;;;;4913898;29;20449;-75
2022/06/01 01:46:33;;;;;;;4.30;3.90;;;;;;;;;;4898120;29;20536;-76
2022/06/01 01:49:01;;;;;;;4.17;3.80;;;;;;;;;;4914215;29;20556;-76
2022/06/01 01:51:29;;;;;;;5.20;4.10;;;;;;;;;;4917810;29;20465;-75
2022/06/01 01:53:56;;;;;;;4.90;4.50;;;;;;;;;;4917087;29;21012;-76
2022/06/01 01:56:31;;;;;;;4.40;4.00;;;;;;;;;;4918203;29;20433;-76
2022/06/01 01:59:13;;;;;;;4.40;4.10;;;;;;;;;;4916570;29;20539;-76
2022/06/01 02:01:45;;;;;;;4.13;3.83;;;;;;;;;;4899599;29;20478;-75
2022/06/01 02:06:59;;;;;;;6.20;4.40;;;;;;;;;;4916954;29;20449;-76
2022/06/01 02:09:26;;;;;;;4.30;3.90;;;;;;;;;;4900835;29;20465;-76
2022/06/01 02:14:40;;;;;;;4.53;4.13;;;;;;;;;;4901777;29;20432;-73
2022/06/01 02:17:09;;;;;;;4.77;4.33;;;;;;;;;;4917228;29;20960;-76
2022/06/01 02:19:38;;;;;;;4.20;3.73;;;;;;;;;;4916328;29;20477;-76
2022/06/01 02:22:05;;;;;;;4.23;3.83;;;;;;;;;;4928830;29;20465;-76
2022/06/01 02:24:32;;;;;;;4.17;3.80;;;;;;;;;;4915597;29;20449;-76
2022/06/01 02:26:59;;;;;;;4.50;4.17;;;;;;;;;;4918059;29;20520;-76
2022/06/01 02:29:28;;;;;;;4.50;4.10;;;;;;;;;;4916470;29;20478;-76
2022/06/01 02:31:57;;;;;;;4.73;4.23;;;;;;;;;;4916298;29;20547;-75
2022/06/01 02:34:25;;;;;;;5.70;4.33;;;;;;;;;;4900722;29;20504;-76
2022/06/01 02:36:52;;;;;;;5.20;4.70;;;;;;;;;;4916583;29;20610;-75
2022/06/01 02:39:43;;;;;;;4.80;4.30;;;;;;;;;;4915892;29;20846;-78
2022/06/01 02:42:29;;;;;;;4.70;4.30;;;;;;;;;;4899468;29;20445;-76
2022/06/01 02:44:56;;;;;;;5.40;4.63;;;;;;;;;;4910308;29;20467;-75
2022/06/01 02:47:23;;;;;;;4.50;4.20;;;;;;;;;;4916598;29;20436;-75
2022/06/01 02:49:51;;;;;;;4.60;4.20;;;;;;;;;;4900292;29;20473;-76
2022/06/01 02:52:18;;;;;;;4.40;4.00;;;;;;;;;;4933315;29;20548;-77
2022/06/01 02:54:45;;;;;;;5.70;4.80;;;;;;;;;;4917849;29;20460;-77
2022/06/01 02:57:14;;;;;;;5.03;4.53;;;;;;;;;;4932589;29;20556;-78
2022/06/01 02:59:41;;;;;;;4.63;4.20;;;;;;;;;;4916784;29;20453;-77
2022/06/01 03:02:09;;;;;;;4.60;4.20;;;;;;;;;;4916539;29;20457;-78
2022/06/01 03:04:36;;;;;;;5.37;4.90;;;;;;;;;;4917191;29;20433;-78
2022/06/01 03:07:04;;;;;;;4.33;3.93;;;;;;;;;;4917534;29;20551;-77
2022/06/01 03:09:31;;;;;;;5.03;4.33;;;;;;;;;;4931586;29;20504;-78
2022/06/01 03:11:57;;;;;;;4.50;4.20;;;;;;;;;;4917632;29;20488;-77
2022/06/01 03:14:24;;;;;;;4.93;4.53;;;;;;;;;;4915342;29;20449;-78
2022/06/01 03:16:50;;;;;;;5.17;4.67;;;;;;;;;;4932549;29;20449;-77
2022/06/01 03:19:17;;;;;;;5.00;4.53;;;;;;;;;;4931215;29;20952;-78
2022/06/01 03:21:44;;;;;;;4.70;4.30;;;;;;;;;;4914980;29;20577;-77
2022/06/01 03:24:11;;;;;;;8.57;4.90;;;;;;;;;;4917776;29;20544;-77
2022/06/01 03:26:38;;;;;;;6.73;4.90;;;;;;;;;;4917700;29;20438;-77
2022/06/01 03:29:04;;;;;;;6.60;5.30;;;;;;;;;;4932005;29;20442;-78
2022/06/01 03:31:31;;;;;;;5.67;4.80;;;;;;;;;;4915365;29;20451;-78
2022/06/01 03:33:58;;;;;;;4.90;4.50;;;;;;;;;;4916504;29;20457;-78
2022/06/01 03:36:25;;;;;;;6.17;4.73;;;;;;;;;;4916983;29;20441;-77
2022/06/01 03:38:52;;;;;;;4.60;4.20;;;;;;;;;;4917080;29;20528;-77
2022/06/01 03:41:20;;;;;;;5.10;4.60;;;;;;;;;;4915440;29;20853;-77
2022/06/01 03:46:29;;;;;;;5.37;4.87;;;;;;;;;;4907525;29;20528;-78
2022/06/01 03:48:55;;;;;;;4.70;4.30;;;;;;;;;;4916306;29;20785;-77
2022/06/01 03:51:24;;;;;;;5.27;4.77;;;;;;;;;;4915502;29;20485;-77
2022/06/01 03:53:51;;;;;;;4.60;4.20;;;;;;;;;;4916458;29;20933;-77
2022/06/01 03:56:18;;;;;;;5.50;4.60;;;;;;;;;;4916824;29;20469;-77
2022/06/01 03:58:46;;;;;;;4.93;4.53;;;;;;;;;;4903388;29;20468;-77
2022/06/01 04:01:13;;;;;;;5.40;4.90;;;;;;;;;;4915766;29;20575;-78
2022/06/01 04:03:39;;;;;;;5.47;4.97;;;;;;;;;;4916844;29;20446;-77
2022/06/01 04:06:06;;;;;;;5.23;4.83;;;;;;;;;;4916453;29;20446;-77
2022/06/01 04:08:32;;;;;;;5.73;5.23;;;;;;;;;;4914617;29;20460;-78
2022/06/01 04:10:59;;;;;;;5.40;4.90;;;;;;;;;;4915137;29;20463;-78
2022/06/01 04:13:26;;;;;;;4.67;4.17;;;;;;;;;;4914879;29;20468;-78
2022/06/01 04:15:54;;;;;;;4.80;4.40;;;;;;;;;;4916143;29;20453;-78
2022/06/01 04:18:21;;;;;;;4.30;4.00;;;;;;;;;;4915606;29;20484;-78
2022/06/01 04:20:49;;;;;;;5.40;4.40;;;;;;;;;;4915670;29;20499;-76
2022/06/01 04:23:16;;;;;;;5.30;4.73;;;;;;;;;;4922583;29;20453;-76
2022/06/01 04:25:42;;;;;;;4.97;4.57;;;;;;;;;;4904185;29;20457;-76
2022/06/01 04:28:09;;;;;;;5.07;4.67;;;;;;;;;;4915791;29;20876;-76
2022/06/01 04:30:35;;;;;;;4.63;4.23;;;;;;;;;;4897401;29;20457;-78
2022/06/01 04:33:03;;;;;;;5.20;4.37;;;;;;;;;;4916531;29;20440;-78
2022/06/01 04:35:30;;;;;;;4.63;4.20;;;;;;;;;;4883496;29;20445;-78
2022/06/01 04:38:12;;;;;;;5.43;4.93;;;;;;;;;;4915492;29;20599;-78
2022/06/01 04:40:38;;;;;;;5.00;4.50;;;;;;;;;;4915468;29;20476;-78
2022/06/01 04:43:05;;;;;;;5.10;4.60;;;;;;;;;;4917472;29;20532;-78
2022/06/01 04:45:31;;;;;;;4.50;4.00;;;;;;;;;;4898725;29;20451;-78
2022/06/01 04:47:58;;;;;;;5.17;4.73;;;;;;;;;;4897198;29;20469;-78
2022/06/01 04:50:26;;;;;;;7.00;4.37;;;;;;;;;;4903087;29;20576;-78
2022/06/01 04:52:52;;;;;;;4.70;4.30;;;;;;;;;;4929630;29;20461;-78
2022/06/01 04:55:19;;;;;;;5.20;4.73;;;;;;;;;;4913401;29;20539;-78
2022/06/01 04:57:45;;;;;;;5.27;4.80;;;;;;;;;;4901719;29;20888;-78
2022/06/01 05:00:13;;;;;;;4.67;3.90;;;;;;;;;;4915008;29;20441;-78
2022/06/01 05:02:39;;;;;;;4.77;4.40;;;;;;;;;;4929625;29;20552;-78
2022/06/01 05:05:06;;;;;;;7.57;4.40;;;;;;;;;;4914397;29;20481;-78
2022/06/01 05:07:34;;;;;;;4.77;4.30;;;;;;;;;;4929012;29;20517;-78
2022/06/01 05:10:01;;;;;;;4.73;4.33;;;;;;;;;;4913813;29;20441;-78
2022/06/01 05:12:27;;;;;;;5.10;4.70;;;;;;;;;;4912698;29;20460;-78
2022/06/01 05:14:54;;;;;;;5.10;4.33;;;;;;;;;;4915492;29;20429;-78
2022/06/01 05:17:20;;;;;;;4.30;4.00;;;;;;;;;;4914895;29;20901;-78
2022/06/01 05:19:47;;;;;;;4.63;4.17;;;;;;;;;;4912799;29;20798;-78
2022/06/01 05:22:13;;;;;;;5.10;3.93;;;;;;;;;;4909755;29;20564;-78
2022/06/01 05:24:41;;;;;;;4.67;4.27;;;;;;;;;;4915237;29;21297;-78
2022/06/01 05:27:08;;;;;;;4.80;4.40;;;;;;;;;;4917668;29;20465;-76
2022/06/01 05:29:36;;;;;;;4.43;4.03;;;;;;;;;;4911382;29;20468;-78
2022/06/01 05:32:03;;;;;;;4.60;4.13;;;;;;;;;;4910938;29;20456;-78
2022/06/01 05:34:30;;;;;;;4.70;4.30;;;;;;;;;;4927178;29;20453;-78
2022/06/01 05:36:57;;;;;;;5.27;4.40;;;;;;;;;;4912249;29;20586;-80
2022/06/01 05:39:24;;;;;;;4.70;4.13;;;;;;;;;;4926595;29;20448;-80
2022/06/01 05:41:52;;;;;;;4.80;4.40;;;;;;;;;;4897501;29;20592;-78
2022/06/01 05:44:18;;;;;;;4.40;4.00;;;;;;;;;;4913304;29;20464;-78
2022/06/01 05:46:45;;;;;;;4.73;4.33;;;;;;;;;;4911518;29;20457;-78
2022/06/01 05:49:13;;;;;;;4.83;4.43;;;;;;;;;;4927050;29;20465;-78
2022/06/01 05:51:39;;;;;;;4.37;4.00;;;;;;;;;;4899311;29;20476;-78
2022/06/01 05:54:09;;;;;;;5.00;3.53;;;;;;;;;;4901399;29;20976;-78
2022/06/01 05:56:35;;;;;;;4.23;3.83;;;;;;;;;;4909728;29;20569;-78
2022/06/01 05:59:03;;;;;;;5.37;4.03;;;;;;;;;;4909997;29;20824;-79
2022/06/01 06:01:30;;;;;;;4.60;4.03;;;;;;;;;;4912358;29;20971;-79
2022/06/01 06:03:57;;;;;;;5.40;4.40;;;;;;;;;;4881795;29;20461;-79
2022/06/01 06:06:24;;;;;;;4.73;4.23;;;;;;;;;;4897873;29;20445;-76
2022/06/01 06:08:52;;;;;;;5.90;4.00;;;;;;;;;;4912838;29;20453;-76
2022/06/01 06:11:19;;;;;;;5.93;4.20;;;;;;;;;;4878662;29;20448;-76
2022/06/01 06:13:48;;;;;;;3.87;3.57;;;;;;;;;;4909679;29;20437;-76
2022/06/01 06:16:17;;;;;;;4.10;3.70;;;;;;;;;;4912339;29;20492;-76
2022/06/01 06:18:44;;;;;;;6.37;4.60;;;;;;;;;;4890191;29;20501;-76
2022/06/01 06:21:11;;;;;;;4.57;4.17;;;;;;;;;;4906893;29;20515;-76
2022/06/01 06:23:39;;;;;;;4.37;4.07;;;;;;;;;;4887842;29;20825;-76
2022/06/01 06:26:06;;;;;;;4.83;3.77;;;;;;;;;;4904598;29;20546;-76
2022/06/01 06:28:33;;;;;;;6.10;3.87;;;;;;;;;;4888609;29;20892;-76
2022/06/01 06:30:59;;;;;;;3.63;3.30;;;;;;;;;;4905458;29;21026;-76
2022/06/01 06:33:29;;;;;;;4.20;3.80;;;;;;;;;;4904990;29;20453;-76
2022/06/01 06:35:59;;;;;;;4.40;3.87;;;;;;;;;;4902891;29;20448;-76
2022/06/01 06:38:28;;;;;;;4.23;3.47;;;;;;;;;;4907660;29;20492;-76
2022/06/01 06:40:58;;;;;;;4.10;3.80;;;;;;;;;;4907247;29;20565;-76
2022/06/01 06:43:27;;;;;;;4.07;3.53;;;;;;;;;;4909492;29;20465;-76
2022/06/01 06:45:57;;;;;;;4.10;3.73;;;;;;;;;;4911527;29;20463;-76
2022/06/01 06:48:23;;;;;;;4.20;3.90;;;;;;;;;;4908627;29;20456;-77
2022/06/01 06:50:54;;;;;;;4.27;3.80;;;;;;;;;;4924276;29;20479;-78
2022/06/01 06:53:21;;;;;;;4.47;4.07;;;;;;;;;;4909377;29;20457;-78
2022/06/01 06:55:48;;;;;;;4.03;3.63;;;;;;;;;;4908967;29;20453;-78
2022/06/01 06:58:15;;;;;;;4.60;3.70;;;;;;;;;;4910389;29;20540;-78
2022/06/01 07:00:42;;;;;;;4.20;3.73;;;;;;;;;;4908691;29;20445;-78
2022/06/01 07:03:18;;;;;;;5.20;3.80;;;;;;;;;;4914443;29;21224;-82
2022/06/01 07:08:30;;;;;;;3.60;3.30;;;;;;;;;;4927296;29;20934;-81
2022/06/01 07:10:58;;;;;;;5.07;4.40;;;;;;;;;;4906836;29;20473;-81
2022/06/01 07:13:27;;;;;;;3.90;3.60;;;;;;;;;;4909923;29;20500;-81
2022/06/01 07:16:01;;;;;;;5.23;3.63;;;;;;;;;;4915360;29;20445;-81
2022/06/01 07:18:30;;;;;;;3.97;3.67;;;;;;;;;;4910001;29;20461;-82
2022/06/01 07:20:59;;;;;;;3.90;3.50;;;;;;;;;;4929442;29;20483;-81
2022/06/01 07:23:26;;;;;;;3.60;3.30;;;;;;;;;;4926753;29;20496;-79
2022/06/01 07:25:55;;;;;;;3.70;3.40;;;;;;;;;;4914014;29;20441;-80
2022/06/01 07:28:22;;;;;;;3.77;3.40;;;;;;;;;;4925914;29;20533;-80
2022/06/01 07:30:56;;;;;;;3.40;3.10;;;;;;;;;;4910317;29;20909;-80
2022/06/01 07:33:23;;;;;;;4.13;3.33;;;;;;;;;;4913156;29;20485;-80
2022/06/01 07:35:50;;;;;;;4.27;3.50;;;;;;;;;;4927112;29;20477;-80
2022/06/01 07:43:54;;;;;;;3.47;3.20;;;;;;;;;;4928417;29;20442;-82
2022/06/01 07:46:21;;;;;;;3.53;3.33;;;;;;;;;;4921553;29;20837;-82
2022/06/01 07:48:49;;;;;;;4.37;3.50;;;;;;;;;;4911959;29;20438;-81
2022/06/01 07:51:16;;;;;;;4.60;3.77;;;;;;;;;;4930103;29;20500;-80
2022/06/01 07:53:43;;;;;;;3.50;3.20;;;;;;;;;;4910968;29;20822;-80
2022/06/01 07:56:11;;;;;;;4.63;3.33;;;;;;;;;;4909541;29;20458;-80
2022/06/01 07:58:40;;;;;;;4.00;2.90;;;;;;;;;;4927428;29;20478;-81
2022/06/01 08:01:06;;;;;;;3.60;3.30;;;;;;;;;;4923598;29;20453;-82
2022/06/01 08:03:33;;;;;;;2.70;2.50;;;;;;;;;;4907427;29;20914;-78
2022/06/01 08:06:01;;;;;;;3.30;3.00;;;;;;;;;;4925277;29;20545;-78
2022/06/01 08:08:27;;;;;;;3.20;2.90;;;;;;;;;;4908690;29;20464;-78
2022/06/01 08:10:54;;;;;;;3.03;2.77;;;;;;;;;;4907341;29;20450;-78
2022/06/01 08:13:21;;;;;;;3.20;2.90;;;;;;;;;;4907524;29;20445;-78
2022/06/01 08:15:49;;;;;;;2.70;2.50;;;;;;;;;;4906914;29;20449;-78
2022/06/01 08:18:16;;;;;;;2.70;2.50;;;;;;;;;;4922785;29;20517;-78
2022/06/01 08:20:44;;;;;;;3.93;2.90;;;;;;;;;;4907222;29;20458;-78
2022/06/01 08:23:10;;;;;;;3.00;2.80;;;;;;;;;;4912057;29;20521;-78
2022/06/01 08:25:38;;;;;;;2.93;2.70;;;;;;;;;;4929627;29;20449;-78
2022/06/01 08:28:05;;;;;;;5.63;2.47;;;;;;;;;;4906914;29;20475;-78
2022/06/01 08:30:34;;;;;;;2.90;2.37;;;;;;;;;;4910309;29;21003;-78
2022/06/01 08:33:01;;;;;;;3.83;3.10;;;;;;;;;;4911132;29;20453;-78
2022/06/01 08:35:30;;;;;;;2.17;2.00;;;;;;;;;;4911501;29;20445;-78
2022/06/01 08:37:57;;;;;;;3.30;2.30;;;;;;;;;;4929925;29;21028;-78
2022/06/01 08:40:26;;;;;;;2.30;2.10;;;;;;;;;;4921425;29;20446;-78
2022/06/01 08:42:56;;;;;;;2.40;2.20;;;;;;;;;;4915037;29;21101;-78
2022/06/01 08:45:24;;;;;;;2.50;2.30;;;;;;;;;;4929145;29;20590;-78
2022/06/01 08:47:52;;;;;;;3.33;3.00;;;;;;;;;;4925759;29;20453;-78
2022/06/01 08:50:21;;;;;;;3.33;2.13;;;;;;;;;;4924170;29;20980;-78
2022/06/01 08:52:48;;;;;;;2.50;2.30;;;;;;;;;;4910414;29;20928;-78
2022/06/01 08:55:17;;;;;;;2.90;2.70;;;;;;;;;;4907128;29;20445;-78
2022/06/01 08:57:48;;;;;;;2.73;2.53;;;;;;;;;;4927894;29;20457;-78
2022/06/01 09:00:16;;;;;;;2.70;2.50;;;;;;;;;;4914243;29;20453;-78
2022/06/01 09:02:46;;;;;;;2.87;2.60;;;;;;;;;;4927579;29;20591;-78
2022/06/01 09:05:17;;;;;;;3.67;2.60;;;;;;;;;;4906733;29;20502;-78
2022/06/01 09:07:48;;;;;;;2.83;2.00;;;;;;;;;;4921301;29;20457;-78
2022/06/01 09:10:29;;;;;;;2.83;2.30;;;;;;;;;;4903962;29;20482;-78
2022/06/01 09:13:02;;;;;;;2.50;2.30;;;;;;;;;;4918636;29;20457;-78
2022/06/01 09:15:30;;;;;;;2.37;2.17;;;;;;;;;;4906624;29;20454;-78
2022/06/01 09:17:57;;;;;;;2.87;2.47;;;;;;;;;;4927906;29;20504;-78
2022/06/01 09:23:11;;;;;;;2.27;2.07;;;;;;;;;;4926176;29;20552;-78
2022/06/01 09:25:51;;;;;;;2.13;1.93;;;;;;;;;;4903062;29;20449;-78
2022/06/01 09:28:20;;;;;;;2.40;2.00;;;;;;;;;;4904596;29;20513;-78
2022/06/01 09:30:51;;;;;;;3.77;2.43;;;;;;;;;;4906669;29;20453;-78
2022/06/01 09:33:24;;;;;;;2.47;2.20;;;;;;;;;;4911197;29;20453;-78
2022/06/01 09:36:01;;;;;;;1.83;1.70;;;;;;;;;;4912667;29;20453;-78
2022/06/01 09:38:35;;;;;;;2.53;1.90;;;;;;;;;;4925624;29;20476;-78
2022/06/01 09:41:06;;;;;;;1.80;1.70;;;;;;;;;;4905475;29;20442;-78
2022/06/01 09:43:33;;;;;;;3.80;1.97;;;;;;;;;;4908087;29;20491;-78
2022/06/01 09:46:00;;;;;;;2.20;2.10;;;;;;;;;;4904032;29;21019;-78
2022/06/01 09:48:29;;;;;;;3.40;2.60;;;;;;;;;;4906012;29;20802;-78
2022/06/01 09:51:01;;;;;;;4.43;2.40;;;;;;;;;;4906550;29;20544;-78
2022/06/01 09:53:33;;;;;;;3.13;2.63;;;;;;;;;;4906488;29;20445;-78
2022/06/01 09:56:04;;;;;;;2.20;2.00;;;;;;;;;;4907629;29;20443;-78
2022/06/01 10:06:52;;;;;;;1.87;1.67;;;;;;;;;;4908896;29;20459;-78
2022/06/01 10:09:25;;;;;;;2.93;2.13;;;;;;;;;;4908574;29;20461;-78
2022/06/01 10:11:54;;;;;;;2.50;1.90;;;;;;;;;;4912942;29;20444;-78
2022/06/01 10:14:25;;;;;;;2.63;2.03;;;;;;;;;;4909434;29;20520;-78
2022/06/01 10:17:00;;;;;;;2.10;1.90;;;;;;;;;;4913180;29;20545;-78
2022/06/01 10:19:30;;;;;;;2.13;1.87;;;;;;;;;;4911458;29;20472;-78
2022/06/01 10:22:00;;;;;;;2.10;1.90;;;;;;;;;;4911134;29;20502;-78
2022/06/01 10:24:34;;;;;;;2.20;2.00;;;;;;;;;;4913945;29;20453;-78
2022/06/01 10:27:01;;;;;;;1.90;1.80;;;;;;;;;;4893603;29;20535;-78
2022/06/01 10:29:31;;;;;;;4.00;1.87;;;;;;;;;;4894680;29;20951;-78
2022/06/01 10:32:03;;;;;;;1.90;1.70;;;;;;;;;;4915128;29;20434;-78
2022/06/01 10:34:32;;;;;;;2.53;1.60;;;;;;;;;;4910826;29;20827;-78
2022/06/01 10:37:03;;;;;;;1.70;1.60;;;;;;;;;;4911904;29;20465;-78
2022/06/01 10:39:32;;;;;;;2.23;1.77;;;;;;;;;;4910802;29;20549;-78
2022/06/01 10:42:04;;;;;;;2.90;1.87;;;;;;;;;;4911231;29;20544;-78
2022/06/01 10:44:40;;;;;;;1.87;1.60;;;;;;;;;;4899367;29;20513;-78
2022/06/01 10:47:10;;;;;;;2.47;1.70;;;;;;;;;;4894141;29;20793;-78
2022/06/01 10:49:42;;;;;;;3.33;2.00;;;;;;;;;;4913602;29;20981;-77
2022/06/01 10:52:15;;;;;;;3.60;2.20;;;;;;;;;;4907902;29;20932;-75
2022/06/01 10:54:45;;;;;;;2.10;1.90;;;;;;;;;;4894805;29;20532;-78
2022/06/01 10:57:16;;;;;;;1.70;1.60;;;;;;;;;;4893144;29;20453;-78
2022/06/01 10:59:44;;;;;;;2.60;1.77;;;;;;;;;;4896003;29;20946;-75
2022/06/01 11:02:18;;;;;;;4.03;1.90;;;;;;;;;;4893322;29;20564;-75
2022/06/01 11:04:48;;;;;;;1.80;1.70;;;;;;;;;;4910373;29;20464;-75
2022/06/01 11:07:23;;;;;;;3.00;1.80;;;;;;;;;;4907644;29;20485;-76
2022/06/01 11:10:00;;;;;;;1.80;1.70;;;;;;;;;;4909846;29;20441;-76
2022/06/01 11:12:31;;;;;;;2.47;1.80;;;;;;;;;;4911706;29;20445;-76
2022/06/01 11:15:05;;;;;;;2.13;1.93;;;;;;;;;;4885926;29;20473;-76
2022/06/01 11:17:34;;;;;;;3.40;1.90;;;;;;;;;;4901384;29;20461;-76
2022/06/01 11:20:05;;;;;;;2.10;1.97;;;;;;;;;;4917692;29;20437;-76
2022/06/01 11:22:49;;;;;;;2.20;2.00;;;;;;;;;;4910439;29;20505;-76
2022/06/01 11:25:19;;;;;;;2.00;1.80;;;;;;;;;;4910785;29;20453;-76
2022/06/01 11:27:52;;;;;;;4.90;2.00;;;;;;;;;;4896230;29;20467;-76
2022/06/01 11:30:20;;;;;;;5.60;2.10;;;;;;;;;;4917748;29;20948;-76
2022/06/01 11:32:48;;;;;;;1.60;1.50;;;;;;;;;;4914297;29;20861;-76
2022/06/01 11:35:18;;;;;;;1.70;1.60;;;;;;;;;;4898860;29;20508;-76
2022/06/01 11:37:48;;;;;;;2.50;1.90;;;;;;;;;;4897052;29;20477;-76
2022/06/01 11:40:16;;;;;;;2.37;2.17;;;;;;;;;;4906302;29;20488;-77
2022/06/01 11:42:48;;;;;;;2.27;2.07;;;;;;;;;;4903205;29;20487;-77
2022/06/01 11:45:18;;;;;;;2.30;2.10;;;;;;;;;;4896446;29;20452;-76
2022/06/01 11:47:46;;;;;;;2.00;1.90;;;;;;;;;;4896302;29;20555;-77
2022/06/01 11:50:15;;;;;;;1.70;1.60;;;;;;;;;;4917093;29;21099;-76
2022/06/01 11:52:44;;;;;;;2.23;1.80;;;;;;;;;;4912201;29;21036;-76
2022/06/01 11:55:21;;;;;;;2.07;1.87;;;;;;;;;;4909384;29;20441;-76
2022/06/01 11:57:51;;;;;;;3.33;1.93;;;;;;;;;;4910345;29;20563;-76
2022/06/01 12:00:21;;;;;;;3.20;2.47;;;;;;;;;;4909330;29;20441;-76
2022/06/01 12:02:50;;;;;;;2.50;2.30;;;;;;;;;;4911047;29;20867;-76
2022/06/01 12:05:23;;;;;;;2.83;1.70;;;;;;;;;;4928768;29;20533;-76
2022/06/01 12:07:56;;;;;;;2.20;2.00;;;;;;;;;;4921489;29;20522;-76
2022/06/01 12:10:26;;;;;;;2.50;2.30;;;;;;;;;;4911473;29;20452;-76
2022/06/01 12:13:08;;;;;;;2.17;1.97;;;;;;;;;;4928353;29;20448;-76
2022/06/01 12:15:42;;;;;;;1.97;1.80;;;;;;;;;;4910226;29;20457;-76
2022/06/01 12:18:29;;;;;;;2.77;2.13;;;;;;;;;;4906982;29;20433;-78
2022/06/01 12:21:11;;;;;;;2.83;2.10;;;;;;;;;;4927893;29;20453;-78
2022/06/01 12:29:40;;;;;;;2.30;2.10;;;;;;;;;;4906329;29;20492;-76
2022/06/01 12:32:13;;;;;;;2.00;1.80;;;;;;;;;;4907928;29;20485;-78
2022/06/01 12:34:42;;;;;;;4.40;2.40;;;;;;;;;;4921055;29;20497;-78
2022/06/01 12:37:10;;;;;;;4.27;2.20;;;;;;;;;;4908571;29;20446;-78
2022/06/01 12:39:43;;;;;;;1.87;1.77;;;;;;;;;;4925960;29;20442;-76
2022/06/01 12:42:12;;;;;;;1.77;1.67;;;;;;;;;;4928635;29;20512;-76
2022/06/01 12:44:41;;;;;;;2.30;2.10;;;;;;;;;;4928482;29;20477;-76
2022/06/01 12:47:09;;;;;;;2.00;1.90;;;;;;;;;;4924844;29;20461;-76
2022/06/01 12:50:07;;;;;;;4.80;2.20;;;;;;;;;;4912252;29;20460;-76
2022/06/01 12:52:34;;;;;;;2.57;2.00;;;;;;;;;;4988389;23;20527;-76
2022/06/01 12:55:02;;;;;;;3.23;1.80;;;;;;;;;;4947786;28;20593;-76
2022/06/01 12:57:31;;;;;;;2.60;2.40;;;;;;;;;;4959168;28;20979;-76
2022/06/01 13:00:00;;;;;;;2.70;1.97;;;;;;;;;;4954590;28;20445;-77
2022/06/01 13:02:28;;;;;;;2.27;2.07;;;;;;;;;;4967735;28;20435;-76
2022/06/01 13:04:56;;;;;;;1.80;1.70;;;;;;;;;;4962347;28;20561;-76
2022/06/01 13:07:24;;;;;;;4.57;2.20;;;;;;;;;;4953068;28;20493;-76
2022/06/01 13:09:57;;;;;;;2.40;2.20;;;;;;;;;;4953767;28;20458;-78
2022/06/01 13:12:28;;;;;;;2.43;2.13;;;;;;;;;;4952315;28;20494;-76
2022/06/01 13:14:54;;;;;;;2.60;2.40;;;;;;;;;;4937267;28;20937;-76
2022/06/01 13:17:25;;;;;;;2.20;2.00;;;;;;;;;;4943721;28;20438;-76
2022/06/01 13:19:58;;;;;;;2.40;2.20;;;;;;;;;;4971489;28;20533;-76
2022/06/01 13:22:27;;;;;;;6.57;2.70;;;;;;;;;;4970957;28;20442;-76
2022/06/01 13:24:55;;;;;;;2.30;2.10;;;;;;;;;;4964000;28;20471;-76
2022/06/01 13:27:21;;;;;;;3.87;2.20;;;;;;;;;;4953387;28;20469;-77
2022/06/01 13:29:52;;;;;;;4.00;2.70;;;;;;;;;;4934559;28;20466;-76
2022/06/01 13:32:20;;;;;;;3.90;2.60;;;;;;;;;;4950295;28;20482;-76
2022/06/01 13:34:48;;;;;;;2.57;2.37;;;;;;;;;;4968340;28;20447;-76
2022/06/01 13:37:16;;;;;;;2.47;2.27;;;;;;;;;;4954041;28;20964;-76
2022/06/01 13:39:53;;;;;;;2.40;2.17;;;;;;;;;;4954382;28;20553;-76
2022/06/01 13:42:24;;;;;;;3.13;2.50;;;;;;;;;;4955822;28;20477;-76
2022/06/01 13:44:53;;;;;;;2.73;2.50;;;;;;;;;;4975066;23;20526;-77
2022/06/01 13:47:23;;;;;;;3.00;2.57;;;;;;;;;;4940893;28;20501;-77
2022/06/01 13:50:03;;;;;;;2.63;2.43;;;;;;;;;;4203390;23;20495;-77
2022/06/01 13:52:30;;;;;;;2.70;2.50;;;;;;;;;;4938098;29;20926;-76
2022/06/01 13:55:28;;;;;;;2.93;2.73;;;;;;;;;;4937389;29;20521;-76
2022/06/01 13:57:55;;;;;;;3.30;2.37;;;;;;;;;;4892198;29;20466;-76
2022/06/01 14:00:26;;;;;;;3.17;2.70;;;;;;;;;;4938634;29;20872;-77
2022/06/01 14:02:54;;;;;;;2.90;2.70;;;;;;;;;;4936641;29;20982;-76
2022/06/01 14:05:24;;;;;;;3.20;2.90;;;;;;;;;;4935663;29;21024;-76
2022/06/01 14:07:55;;;;;;;4.13;2.70;;;;;;;;;;4938532;29;20475;-76
2022/06/01 14:10:30;;;;;;;2.53;2.33;;;;;;;;;;4946360;29;20450;-76
2022/06/01 14:12:57;;;;;;;2.70;2.50;;;;;;;;;;4938414;29;20574;-77
2022/06/01 14:15:23;;;;;;;2.90;2.70;;;;;;;;;;4938963;29;20450;-77
2022/06/01 14:17:50;;;;;;;3.13;2.83;;;;;;;;;;4935755;29;20503;-77
2022/06/01 14:20:16;;;;;;;5.67;3.03;;;;;;;;;;4949633;29;20486;-77
2022/06/01 14:22:44;;;;;;;3.17;2.87;;;;;;;;;;4937188;29;20809;-76
2022/06/01 14:30:39;;;;;;;2.67;2.47;;;;;;;;;;4938038;29;20778;-76
2022/06/01 14:33:08;;;;;;;2.50;2.30;;;;;;;;;;4938788;29;20559;-76
2022/06/01 14:35:35;;;;;;;3.00;2.80;;;;;;;;;;4954896;29;20451;-76
2022/06/01 14:38:03;;;;;;;4.07;3.00;;;;;;;;;;4914382;29;20535;-76
2022/06/01 14:40:29;;;;;;;4.27;2.53;;;;;;;;;;4933597;29;20445;-76
2022/06/01 14:42:56;;;;;;;3.60;2.80;;;;;;;;;;4932694;29;20886;-76
2022/06/01 14:45:23;;;;;;;2.70;2.50;;;;;;;;;;4951565;29;21072;-76
2022/06/01 14:47:49;;;;;;;3.17;2.93;;;;;;;;;;4937188;29;20455;-76
2022/06/01 14:50:16;;;;;;;3.10;2.80;;;;;;;;;;4940275;29;21061;-77
2022/06/01 14:52:43;;;;;;;2.73;2.53;;;;;;;;;;4952631;29;20452;-77
2022/06/01 14:55:11;;;;;;;3.80;2.70;;;;;;;;;;4948152;28;20436;-77
2022/06/01 14:57:37;;;;;;;2.80;2.50;;;;;;;;;;4946779;28;20442;-76
2022/06/01 15:00:06;;;;;;;2.50;2.30;;;;;;;;;;4955542;29;20475;-77
2022/06/01 15:02:33;;;;;;;4.43;3.33;;;;;;;;;;4955790;28;20539;-77
2022/06/01 15:05:02;;;;;;;4.30;2.83;;;;;;;;;;4949620;29;20579;-77
2022/06/01 15:07:31;;;;;;;2.47;2.27;;;;;;;;;;4919958;29;20444;-77
2022/06/01 15:09:57;;;;;;;3.00;2.30;;;;;;;;;;4953051;29;20503;-77
2022/06/01 15:12:25;;;;;;;3.07;2.77;;;;;;;;;;4938582;29;20931;-77
2022/06/01 15:14:51;;;;;;;2.77;2.57;;;;;;;;;;4942582;29;20466;-77
2022/06/01 15:17:19;;;;;;;3.13;2.30;;;;;;;;;;4950612;29;20466;-77
2022/06/01 15:19:45;;;;;;;3.13;2.67;;;;;;;;;;4954786;29;20447;-77
2022/06/01 15:22:13;;;;;;;4.00;3.00;;;;;;;;;;4947418;28;20926;-77
2022/06/01 15:24:46;;;;;;;5.80;2.23;;;;;;;;;;4960345;28;20498;-81
2022/06/01 15:27:14;;;;;;;2.47;2.27;;;;;;;;;;4951058;29;20440;-81
2022/06/01 15:40:39;;;;;;;2.87;2.67;;;;;;;;;;4954601;28;20435;-82
2022/06/01 15:43:05;;;;;;;4.00;2.90;;;;;;;;;;4952778;29;20489;-82